sensor_id;sensor_type;location;lat;lon;timestamp;pressure;altitude;pressure_sealevel;temperature;humidity
35704;BME280;21820;51.112;13.762;2023-02-19T00:01:14;99319.13;;;21.50;61.04
35704;BME280;21820;51.112;13.762;2023-02-19T00:03:41;99306.88;;;21.51;60.37
35704;BME280;21820;51.112;13.762;2023-02-19T00:06:08;99306.72;;;21.52;60.17
35704;BME280;21820;51.112;13.762;2023-02-19T00:08:35;99298.88;;;21.52;60.27
35704;BME280;21820;51.112;13.762;2023-02-19T00:11:05;99279.00;;;21.42;59.87
35704;BME280;21820;51.112;13.762;2023-02-19T00:13:35;99297.91;;;21.53;60.95
35704;BME280;21820;51.112;13.762;2023-02-19T00:16:05;99286.94;;;21.50;61.19
35704;BME280;21820;51.112;13.762;2023-02-19T00:18:31;99292.16;;;21.50;60.14
35704;BME280;21820;51.112;13.762;2023-02-19T00:20:56;99282.50;;;21.50;60.28
35704;BME280;21820;51.112;13.762;2023-02-19T00:23:21;99287.72;;;21.50;59.80
35704;BME280;21820;51.112;13.762;2023-02-19T00:25:47;99288.03;;;21.47;60.36
35704;BME280;21820;51.112;13.762;2023-02-19T00:28:12;99289.97;;;21.45;60.74
35704;BME280;21820;51.112;13.762;2023-02-19T00:30:37;99277.03;;;21.44;60.61
35704;BME280;21820;51.112;13.762;2023-02-19T00:33:03;99273.88;;;21.40;60.74
35704;BME280;21820;51.112;13.762;2023-02-19T00:35:28;99264.69;;;21.36;60.68
35704;BME280;21820;51.112;13.762;2023-02-19T00:37:53;99283.09;;;21.44;60.77
35704;BME280;21820;51.112;13.762;2023-02-19T00:40:19;99282.25;;;21.44;60.06
35704;BME280;21820;51.112;13.762;2023-02-19T00:42:44;99284.22;;;21.42;59.97
35704;BME280;21820;51.112;13.762;2023-02-19T00:45:09;99275.53;;;21.41;60.51
35704;BME280;21820;51.112;13.762;2023-02-19T00:47:35;99272.09;;;21.41;60.15
35704;BME280;21820;51.112;13.762;2023-02-19T00:50:00;99274.19;;;21.37;60.66
35704;BME280;21820;51.112;13.762;2023-02-19T00:52:25;99250.16;;;21.24;60.62
35704;BME280;21820;51.112;13.762;2023-02-19T00:54:50;99273.78;;;21.32;60.13
35704;BME280;21820;51.112;13.762;2023-02-19T00:57:16;99256.06;;;21.26;59.22
35704;BME280;21820;51.112;13.762;2023-02-19T00:59:41;99259.09;;;21.31;60.99
35704;BME280;21820;51.112;13.762;2023-02-19T01:02:06;99246.22;;;21.20;60.18
35704;BME280;21820;51.112;13.762;2023-02-19T01:04:32;99255.09;;;21.27;60.18
35704;BME280;21820;51.112;13.762;2023-02-19T01:06:57;99258.41;;;21.29;61.09
35704;BME280;21820;51.112;13.762;2023-02-19T01:09:22;99254.28;;;21.27;60.55
35704;BME280;21820;51.112;13.762;2023-02-19T01:11:48;99252.47;;;21.27;60.41
35704;BME280;21820;51.112;13.762;2023-02-19T01:14:13;99243.31;;;21.23;60.47
35704;BME280;21820;51.112;13.762;2023-02-19T01:16:38;99235.91;;;21.19;60.60
35704;BME280;21820;51.112;13.762;2023-02-19T01:19:04;99243.16;;;21.25;61.13
35704;BME280;21820;51.112;13.762;2023-02-19T01:21:30;99236.16;;;21.25;60.78
35704;BME280;21820;51.112;13.762;2023-02-19T01:23:56;99233.53;;;21.25;60.44
35704;BME280;21820;51.112;13.762;2023-02-19T01:26:24;99218.94;;;21.23;61.31
35704;BME280;21820;51.112;13.762;2023-02-19T01:28:50;99217.97;;;21.24;60.66
35704;BME280;21820;51.112;13.762;2023-02-19T01:31:21;99219.78;;;21.23;61.41
35704;BME280;21820;51.112;13.762;2023-02-19T01:33:49;99205.03;;;21.22;60.99
35704;BME280;21820;51.112;13.762;2023-02-19T01:36:16;99199.16;;;21.20;60.38
35704;BME280;21820;51.112;13.762;2023-02-19T01:38:42;99191.00;;;21.23;61.03
35704;BME280;21820;51.112;13.762;2023-02-19T01:41:11;99180.84;;;21.20;60.73
35704;BME280;21820;51.112;13.762;2023-02-19T01:46:39;99163.72;;;21.08;60.75
35704;BME280;21820;51.112;13.762;2023-02-19T01:49:38;99178.25;;;21.20;61.20
35704;BME280;21820;51.112;13.762;2023-02-19T01:52:05;99184.72;;;21.16;61.05
35704;BME280;21820;51.112;13.762;2023-02-19T01:54:36;99171.50;;;21.18;61.16
35704;BME280;21820;51.112;13.762;2023-02-19T01:57:08;99169.88;;;21.17;61.13
35704;BME280;21820;51.112;13.762;2023-02-19T01:59:36;99176.19;;;21.14;60.77
35704;BME280;21820;51.112;13.762;2023-02-19T02:02:02;99173.88;;;21.11;59.71
35704;BME280;21820;51.112;13.762;2023-02-19T02:04:29;99170.03;;;21.15;61.22
35704;BME280;21820;51.112;13.762;2023-02-19T02:06:56;99170.59;;;21.09;60.44
35704;BME280;21820;51.112;13.762;2023-02-19T02:09:26;99143.53;;;21.01;61.20
35704;BME280;21820;51.112;13.762;2023-02-19T02:12:10;99156.88;;;21.07;60.01
35704;BME280;21820;51.112;13.762;2023-02-19T02:14:39;99161.78;;;21.10;60.87
35704;BME280;21820;51.112;13.762;2023-02-19T02:22:40;99151.91;;;21.04;62.02
35704;BME280;21820;51.112;13.762;2023-02-19T02:27:39;99144.06;;;21.04;61.60
35704;BME280;21820;51.112;13.762;2023-02-19T02:32:50;99134.75;;;21.02;61.56
35704;BME280;21820;51.112;13.762;2023-02-19T02:35:22;99141.91;;;21.00;62.02
35704;BME280;21820;51.112;13.762;2023-02-19T02:37:49;99134.75;;;21.02;60.45
35704;BME280;21820;51.112;13.762;2023-02-19T02:40:17;99133.91;;;21.01;60.57
35704;BME280;21820;51.112;13.762;2023-02-19T02:42:44;99130.47;;;21.01;61.41
35704;BME280;21820;51.112;13.762;2023-02-19T02:48:01;99103.97;;;20.86;60.76
35704;BME280;21820;51.112;13.762;2023-02-19T02:50:33;99119.22;;;21.00;61.89
35704;BME280;21820;51.112;13.762;2023-02-19T02:53:03;99120.44;;;20.96;61.24
35704;BME280;21820;51.112;13.762;2023-02-19T02:55:50;99114.94;;;20.99;60.90
35704;BME280;21820;51.112;13.762;2023-02-19T02:58:17;99100.50;;;20.95;61.30
35704;BME280;21820;51.112;13.762;2023-02-19T03:00:47;99090.75;;;20.97;61.75
35704;BME280;21820;51.112;13.762;2023-02-19T03:03:36;99071.94;;;20.84;61.24
35704;BME280;21820;51.112;13.762;2023-02-19T03:06:06;99092.66;;;20.95;61.04
35704;BME280;21820;51.112;13.762;2023-02-19T03:08:40;99095.44;;;20.94;61.71
35704;BME280;21820;51.112;13.762;2023-02-19T03:11:09;99098.19;;;20.92;61.25
35704;BME280;21820;51.112;13.762;2023-02-19T03:14:05;99080.09;;;20.81;61.79
35704;BME280;21820;51.112;13.762;2023-02-19T03:16:56;99087.75;;;20.92;61.21
35704;BME280;21820;51.112;13.762;2023-02-19T03:19:44;99065.53;;;20.79;62.12
35704;BME280;21820;51.112;13.762;2023-02-19T03:22:18;99057.72;;;20.79;61.37
35704;BME280;21820;51.112;13.762;2023-02-19T03:25:12;99073.47;;;20.87;62.16
35704;BME280;21820;51.112;13.762;2023-02-19T03:27:56;99052.47;;;20.79;61.62
35704;BME280;21820;51.112;13.762;2023-02-19T03:30:30;99042.19;;;20.77;61.62
35704;BME280;21820;51.112;13.762;2023-02-19T03:33:04;99072.34;;;20.89;61.77
35704;BME280;21820;51.112;13.762;2023-02-19T03:35:36;99061.38;;;20.86;61.57
35704;BME280;21820;51.112;13.762;2023-02-19T03:38:11;99047.72;;;20.74;61.35
35704;BME280;21820;51.112;13.762;2023-02-19T03:41:15;99058.63;;;20.87;62.23
35704;BME280;21820;51.112;13.762;2023-02-19T03:43:53;99060.56;;;20.85;60.53
35704;BME280;21820;51.112;13.762;2023-02-19T03:46:35;99057.72;;;20.79;61.14
35704;BME280;21820;51.112;13.762;2023-02-19T03:49:15;99053.66;;;20.84;61.91
35704;BME280;21820;51.112;13.762;2023-02-19T03:51:50;99050.09;;;20.85;62.68
35704;BME280;21820;51.112;13.762;2023-02-19T03:54:31;99034.72;;;20.82;62.29
35704;BME280;21820;51.112;13.762;2023-02-19T03:59:45;99049.03;;;20.78;61.17
35704;BME280;21820;51.112;13.762;2023-02-19T04:05:10;99008.41;;;20.66;61.84
35704;BME280;21820;51.112;13.762;2023-02-19T04:07:41;99027.03;;;20.81;62.20
35704;BME280;21820;51.112;13.762;2023-02-19T04:10:09;99033.66;;;20.75;61.65
35704;BME280;21820;51.112;13.762;2023-02-19T04:12:38;99035.97;;;20.78;62.12
35704;BME280;21820;51.112;13.762;2023-02-19T04:15:09;99036.97;;;20.77;61.67
35704;BME280;21820;51.112;13.762;2023-02-19T04:17:55;99021.44;;;20.76;62.54
35704;BME280;21820;51.112;13.762;2023-02-19T04:20:22;99018.81;;;20.76;61.47
35704;BME280;21820;51.112;13.762;2023-02-19T04:22:50;99015.06;;;20.78;61.94
35704;BME280;21820;51.112;13.762;2023-02-19T04:25:16;99018.66;;;20.77;61.21
35704;BME280;21820;51.112;13.762;2023-02-19T04:27:43;99010.84;;;20.77;61.79
35704;BME280;21820;51.112;13.762;2023-02-19T04:30:10;99017.84;;;20.77;62.19
35704;BME280;21820;51.112;13.762;2023-02-19T04:32:36;98989.50;;;20.64;60.82
35704;BME280;21820;51.112;13.762;2023-02-19T04:35:01;99010.84;;;20.77;60.97
35704;BME280;21820;51.112;13.762;2023-02-19T04:37:26;99001.34;;;20.76;61.57
35704;BME280;21820;51.112;13.762;2023-02-19T04:39:52;99007.69;;;20.73;60.86
35704;BME280;21820;51.112;13.762;2023-02-19T04:42:17;98993.81;;;20.73;61.83
35704;BME280;21820;51.112;13.762;2023-02-19T04:44:42;99002.47;;;20.73;61.41
35704;BME280;21820;51.112;13.762;2023-02-19T04:47:08;99002.63;;;20.72;61.50
35704;BME280;21820;51.112;13.762;2023-02-19T04:49:33;99002.47;;;20.73;61.95
35704;BME280;21820;51.112;13.762;2023-02-19T04:51:58;99013.06;;;20.72;60.92
35704;BME280;21820;51.112;13.762;2023-02-19T04:54:24;99008.78;;;20.71;61.47
35704;BME280;21820;51.112;13.762;2023-02-19T04:56:49;99008.78;;;20.71;62.22
35704;BME280;21820;51.112;13.762;2023-02-19T04:59:15;99015.00;;;20.70;61.41
35704;BME280;21820;51.112;13.762;2023-02-19T05:01:40;98995.66;;;20.63;62.48
35704;BME280;21820;51.112;13.762;2023-02-19T05:04:06;98999.34;;;20.70;61.37
35704;BME280;21820;51.112;13.762;2023-02-19T05:06:31;99003.06;;;20.67;61.66
35704;BME280;21820;51.112;13.762;2023-02-19T05:08:57;99019.53;;;20.68;61.82
35704;BME280;21820;51.112;13.762;2023-02-19T05:11:22;99016.63;;;20.71;61.41
35704;BME280;21820;51.112;13.762;2023-02-19T05:13:48;99032.47;;;20.69;61.36
35704;BME280;21820;51.112;13.762;2023-02-19T05:16:14;99024.78;;;20.68;61.43
35704;BME280;21820;51.112;13.762;2023-02-19T05:18:41;99021.41;;;20.58;61.16
35704;BME280;21820;51.112;13.762;2023-02-19T05:21:07;99030.97;;;20.67;62.11
35704;BME280;21820;51.112;13.762;2023-02-19T05:23:33;99032.59;;;20.68;61.20
35704;BME280;21820;51.112;13.762;2023-02-19T05:25:58;99028.38;;;20.67;61.62
35704;BME280;21820;51.112;13.762;2023-02-19T05:28:23;99025.22;;;20.63;61.77
35704;BME280;21820;51.112;13.762;2023-02-19T05:30:54;99025.75;;;20.67;62.15
35704;BME280;21820;51.112;13.762;2023-02-19T05:33:22;99029.03;;;20.69;61.88
35704;BME280;21820;51.112;13.762;2023-02-19T05:35:49;99010.00;;;20.59;62.32
35704;BME280;21820;51.112;13.762;2023-02-19T05:38:16;99005.88;;;20.56;61.72
35704;BME280;21820;51.112;13.762;2023-02-19T05:40:42;99020.53;;;20.67;61.91
35704;BME280;21820;51.112;13.762;2023-02-19T05:43:08;99020.53;;;20.67;62.30
35704;BME280;21820;51.112;13.762;2023-02-19T05:45:34;99018.59;;;20.69;61.52
35704;BME280;21820;51.112;13.762;2023-02-19T05:47:59;99015.97;;;20.69;62.19
35704;BME280;21820;51.112;13.762;2023-02-19T05:50:26;99011.72;;;20.68;61.58
35704;BME280;21820;51.112;13.762;2023-02-19T05:52:51;99015.22;;;20.59;61.50
35704;BME280;21820;51.112;13.762;2023-02-19T05:55:17;99028.38;;;20.67;61.75
35704;BME280;21820;51.112;13.762;2023-02-19T05:57:44;99037.03;;;20.67;62.01
35704;BME280;21820;51.112;13.762;2023-02-19T06:00:11;99035.66;;;20.63;61.79
35704;BME280;21820;51.112;13.762;2023-02-19T06:02:37;99042.25;;;20.67;61.64
35704;BME280;21820;51.112;13.762;2023-02-19T06:05:02;99037.16;;;20.66;61.38
35704;BME280;21820;51.112;13.762;2023-02-19T06:07:29;99036.19;;;20.67;61.51
35704;BME280;21820;51.112;13.762;2023-02-19T06:09:55;99039.75;;;20.66;62.14
35704;BME280;21820;51.112;13.762;2023-02-19T06:12:21;99044.97;;;20.66;62.13
35704;BME280;21820;51.112;13.762;2023-02-19T06:14:46;99045.66;;;20.68;61.82
35704;BME280;21820;51.112;13.762;2023-02-19T06:17:12;99046.66;;;20.67;61.88
35704;BME280;21820;51.112;13.762;2023-02-19T06:19:37;99051.88;;;20.67;62.07
35704;BME280;21820;51.112;13.762;2023-02-19T06:22:02;99051.19;;;20.65;62.19
35704;BME280;21820;51.112;13.762;2023-02-19T06:24:28;99050.22;;;20.66;62.30
35704;BME280;21820;51.112;13.762;2023-02-19T06:26:54;99058.03;;;20.66;62.22
35704;BME280;21820;51.112;13.762;2023-02-19T06:29:19;99056.41;;;20.65;61.53
35704;BME280;21820;51.112;13.762;2023-02-19T06:31:45;99057.25;;;20.65;62.08
35704;BME280;21820;51.112;13.762;2023-02-19T06:34:10;99051.63;;;20.60;61.58
35704;BME280;21820;51.112;13.762;2023-02-19T06:36:35;99071.78;;;20.68;61.67
35704;BME280;21820;51.112;13.762;2023-02-19T06:39:02;99077.00;;;20.68;62.42
35704;BME280;21820;51.112;13.762;2023-02-19T06:41:27;99078.00;;;20.67;60.99
35704;BME280;21820;51.112;13.762;2023-02-19T06:43:53;99079.91;;;20.65;61.29
35704;BME280;21820;51.112;13.762;2023-02-19T06:46:18;99079.91;;;20.65;62.22
35704;BME280;21820;51.112;13.762;2023-02-19T06:48:44;99057.56;;;20.53;61.70
35704;BME280;21820;51.112;13.762;2023-02-19T06:51:15;99086.78;;;20.66;61.78
35704;BME280;21820;51.112;13.762;2023-02-19T06:53:43;99086.13;;;20.64;62.36
35704;BME280;21820;51.112;13.762;2023-02-19T06:56:26;99083.50;;;20.64;62.52
35704;BME280;21820;51.112;13.762;2023-02-19T06:58:53;99089.00;;;20.61;62.32
35704;BME280;21820;51.112;13.762;2023-02-19T07:01:20;99093.97;;;20.64;61.62
35704;BME280;21820;51.112;13.762;2023-02-19T07:03:46;99100.81;;;20.65;62.19
35704;BME280;21820;51.112;13.762;2023-02-19T07:06:11;99104.09;;;20.67;61.67
35704;BME280;21820;51.112;13.762;2023-02-19T07:08:36;99108.66;;;20.65;61.68
35704;BME280;21820;51.112;13.762;2023-02-19T07:11:02;99112.09;;;20.65;61.50
35704;BME280;21820;51.112;13.762;2023-02-19T07:13:27;99132.44;;;20.62;61.30
35704;BME280;21820;51.112;13.762;2023-02-19T07:16:07;99138.22;;;20.65;62.59
35704;BME280;21820;51.112;13.762;2023-02-19T07:18:32;99155.81;;;20.63;61.09
35704;BME280;21820;51.112;13.762;2023-02-19T07:21:05;99149.75;;;20.63;62.30
35704;BME280;21820;51.112;13.762;2023-02-19T07:23:31;99160.19;;;20.63;62.06
35704;BME280;21820;51.112;13.762;2023-02-19T07:25:57;99150.59;;;20.63;62.41
35704;BME280;21820;51.112;13.762;2023-02-19T07:28:22;99142.94;;;20.52;61.01
35704;BME280;21820;51.112;13.762;2023-02-19T07:30:48;99170.66;;;20.63;61.44
35704;BME280;21820;51.112;13.762;2023-02-19T07:33:13;99175.06;;;20.62;61.91
35704;BME280;21820;51.112;13.762;2023-02-19T07:35:49;99201.03;;;20.64;62.08
35704;BME280;21820;51.112;13.762;2023-02-19T07:38:18;99194.16;;;20.63;61.77
35704;BME280;21820;51.112;13.762;2023-02-19T07:43:16;99208.34;;;20.60;61.92
35704;BME280;21820;51.112;13.762;2023-02-19T07:45:41;99217.50;;;20.64;61.84
35704;BME280;21820;51.112;13.762;2023-02-19T07:48:06;99212.16;;;20.66;61.87
35704;BME280;21820;51.112;13.762;2023-02-19T07:50:32;99216.03;;;20.62;61.99
35704;BME280;21820;51.112;13.762;2023-02-19T07:52:57;99224.56;;;20.64;61.81
35704;BME280;21820;51.112;13.762;2023-02-19T07:55:22;99233.03;;;20.66;62.31
35704;BME280;21820;51.112;13.762;2023-02-19T07:57:48;99237.47;;;20.65;62.35
35704;BME280;21820;51.112;13.762;2023-02-19T08:00:13;99236.63;;;20.65;61.93
35704;BME280;21820;51.112;13.762;2023-02-19T08:02:39;99251.47;;;20.64;62.13
35704;BME280;21820;51.112;13.762;2023-02-19T08:05:22;99249.00;;;20.63;61.71
35704;BME280;21820;51.112;13.762;2023-02-19T08:07:48;99249.84;;;20.63;62.16
35704;BME280;21820;51.112;13.762;2023-02-19T08:10:13;99261.91;;;20.64;61.68
35704;BME280;21820;51.112;13.762;2023-02-19T08:12:59;99244.94;;;20.51;62.35
35704;BME280;21820;51.112;13.762;2023-02-19T08:18:31;99270.19;;;20.60;61.88
35704;BME280;21820;51.112;13.762;2023-02-19T08:20:58;99285.56;;;20.63;62.41
35704;BME280;21820;51.112;13.762;2023-02-19T08:23:24;99299.47;;;20.63;62.24
35704;BME280;21820;51.112;13.762;2023-02-19T08:25:51;99308.13;;;20.64;61.94
35704;BME280;21820;51.112;13.762;2023-02-19T08:28:17;99322.81;;;20.65;61.43
35704;BME280;21820;51.112;13.762;2023-02-19T08:30:44;99331.63;;;20.64;62.12
35704;BME280;21820;51.112;13.762;2023-02-19T08:33:12;99347.44;;;20.62;62.27
35704;BME280;21820;51.112;13.762;2023-02-19T08:35:38;99330.41;;;20.58;61.94
35704;BME280;21820;51.112;13.762;2023-02-19T08:38:05;99318.84;;;20.51;62.09
35704;BME280;21820;51.112;13.762;2023-02-19T08:40:30;99339.19;;;20.67;62.18
35704;BME280;21820;51.112;13.762;2023-02-19T08:43:04;99332.06;;;20.50;61.79
35704;BME280;21820;51.112;13.762;2023-02-19T08:45:31;99361.59;;;20.60;62.40
35704;BME280;21820;51.112;13.762;2023-02-19T08:47:57;99374.38;;;20.63;61.91
35704;BME280;21820;51.112;13.762;2023-02-19T08:50:23;99388.41;;;20.62;62.08
35704;BME280;21820;51.112;13.762;2023-02-19T08:52:49;99392.81;;;20.61;61.57
35704;BME280;21820;51.112;13.762;2023-02-19T08:55:14;99377.41;;;20.49;61.52
35704;BME280;21820;51.112;13.762;2023-02-19T08:57:39;99419.75;;;20.62;61.96
35704;BME280;21820;51.112;13.762;2023-02-19T09:00:06;99399.94;;;20.50;62.46
35704;BME280;21820;51.112;13.762;2023-02-19T09:02:33;99411.38;;;20.49;62.01
35704;BME280;21820;51.112;13.762;2023-02-19T09:04:58;99435.44;;;20.62;61.19
35704;BME280;21820;51.112;13.762;2023-02-19T09:07:24;99451.22;;;20.60;61.96
35704;BME280;21820;51.112;13.762;2023-02-19T09:09:49;99448.63;;;20.60;61.44
35704;BME280;21820;51.112;13.762;2023-02-19T09:12:14;99440.09;;;20.49;61.62
35704;BME280;21820;51.112;13.762;2023-02-19T09:14:40;99466.78;;;20.62;62.15
35704;BME280;21820;51.112;13.762;2023-02-19T09:17:07;99482.44;;;20.62;61.54
35704;BME280;21820;51.112;13.762;2023-02-19T09:19:33;99487.66;;;20.62;61.73
35704;BME280;21820;51.112;13.762;2023-02-19T09:21:59;99493.72;;;20.62;61.73
35704;BME280;21820;51.112;13.762;2023-02-19T09:24:25;99503.34;;;20.62;61.90
35704;BME280;21820;51.112;13.762;2023-02-19T09:26:52;99502.50;;;20.61;61.62
35704;BME280;21820;51.112;13.762;2023-02-19T09:29:18;99521.22;;;20.66;62.18
35704;BME280;21820;51.112;13.762;2023-02-19T09:31:43;99513.78;;;20.62;61.66
35704;BME280;21820;51.112;13.762;2023-02-19T09:34:09;99524.22;;;20.62;61.63
35704;BME280;21820;51.112;13.762;2023-02-19T09:36:36;99526.97;;;20.60;61.82
35704;BME280;21820;51.112;13.762;2023-02-19T09:39:01;99533.84;;;20.61;61.98
35704;BME280;21820;51.112;13.762;2023-02-19T09:41:30;99538.38;;;20.59;61.97
35704;BME280;21820;51.112;13.762;2023-02-19T09:43:57;99546.22;;;20.59;61.58
35704;BME280;21820;51.112;13.762;2023-02-19T09:46:30;99553.38;;;20.57;62.62
35704;BME280;21820;51.112;13.762;2023-02-19T09:49:20;99558.19;;;20.62;62.26
35704;BME280;21820;51.112;13.762;2023-02-19T09:51:54;99554.88;;;20.60;62.16
35704;BME280;21820;51.112;13.762;2023-02-19T09:54:25;99550.63;;;20.59;61.74
35704;BME280;21820;51.112;13.762;2023-02-19T09:56:53;99561.06;;;20.59;61.95
35704;BME280;21820;51.112;13.762;2023-02-19T09:59:28;99565.47;;;20.58;62.39
35704;BME280;21820;51.112;13.762;2023-02-19T10:02:02;99548.09;;;20.48;61.77
35704;BME280;21820;51.112;13.762;2023-02-19T10:04:28;99576.75;;;20.59;61.41
35704;BME280;21820;51.112;13.762;2023-02-19T10:06:56;99581.97;;;20.59;61.96
35704;BME280;21820;51.112;13.762;2023-02-19T10:09:28;99588.00;;;20.59;62.24
35704;BME280;21820;51.112;13.762;2023-02-19T10:11:54;99589.81;;;20.59;62.11
35704;BME280;21820;51.112;13.762;2023-02-19T10:14:34;99601.06;;;20.59;62.62
35704;BME280;21820;51.112;13.762;2023-02-19T10:17:03;99598.56;;;20.48;62.27
35704;BME280;21820;51.112;13.762;2023-02-19T10:19:30;99616.88;;;20.58;61.63
35704;BME280;21820;51.112;13.762;2023-02-19T10:21:57;99615.22;;;20.57;62.00
35704;BME280;21820;51.112;13.762;2023-02-19T10:24:26;99610.00;;;20.57;62.03
35704;BME280;21820;51.112;13.762;2023-02-19T10:26:52;99605.69;;;20.46;61.82
35704;BME280;21820;51.112;13.762;2023-02-19T10:29:18;99638.59;;;20.58;61.64
35704;BME280;21820;51.112;13.762;2023-02-19T10:31:44;99636.97;;;20.57;61.67
35704;BME280;21820;51.112;13.762;2023-02-19T10:34:21;99639.44;;;20.59;62.52
35704;BME280;21820;51.112;13.762;2023-02-19T10:36:48;99636.97;;;20.57;61.74
35704;BME280;21820;51.112;13.762;2023-02-19T10:41:47;99644.94;;;20.56;61.37
35704;BME280;21820;51.112;13.762;2023-02-19T10:44:15;99645.88;;;20.55;62.00
35704;BME280;21820;51.112;13.762;2023-02-19T10:46:48;99660.59;;;20.56;62.30
35704;BME280;21820;51.112;13.762;2023-02-19T10:49:26;99662.38;;;20.55;62.45
35704;BME280;21820;51.112;13.762;2023-02-19T10:51:55;99670.22;;;20.55;61.41
35704;BME280;21820;51.112;13.762;2023-02-19T10:54:27;99669.38;;;20.55;62.43
35704;BME280;21820;51.112;13.762;2023-02-19T10:57:25;99675.44;;;20.55;62.47
35704;BME280;21820;51.112;13.762;2023-02-19T11:00:05;99678.03;;;20.55;62.40
35704;BME280;21820;51.112;13.762;2023-02-19T11:02:43;99680.66;;;20.55;61.28
35704;BME280;21820;51.112;13.762;2023-02-19T11:07:36;99688.75;;;20.52;61.15
35704;BME280;21820;51.112;13.762;2023-02-19T11:10:04;99695.63;;;20.53;61.43
35704;BME280;21820;51.112;13.762;2023-02-19T11:12:32;99694.66;;;20.54;61.67
35704;BME280;21820;51.112;13.762;2023-02-19T11:15:20;99702.50;;;20.54;62.53
35704;BME280;21820;51.112;13.762;2023-02-19T11:18:39;99677.56;;;20.41;62.02
35704;BME280;21820;51.112;13.762;2023-02-19T11:20:48;99705.38;;;20.51;61.93
35704;BME280;21820;51.112;13.762;2023-02-19T11:23:17;99720.91;;;20.53;61.65
35704;BME280;21820;51.112;13.762;2023-02-19T11:25:48;99715.00;;;20.51;61.25
35704;BME280;21820;51.112;13.762;2023-02-19T11:30:48;99722.84;;;20.51;62.04
35704;BME280;21820;51.112;13.762;2023-02-19T11:35:45;99733.28;;;20.51;61.76
35704;BME280;21820;51.112;13.762;2023-02-19T11:38:13;99709.13;;;20.38;61.47
35704;BME280;21820;51.112;13.762;2023-02-19T11:40:40;99736.72;;;20.51;61.56
35704;BME280;21820;51.112;13.762;2023-02-19T11:46:08;99738.38;;;20.52;61.88
35704;BME280;21820;51.112;13.762;2023-02-19T12:00:19;99742.19;;;20.48;62.34
35704;BME280;21820;51.112;13.762;2023-02-19T12:02:50;99752.63;;;20.48;61.81
35704;BME280;21820;51.112;13.762;2023-02-19T12:08:11;99763.09;;;20.48;61.70
35704;BME280;21820;51.112;13.762;2023-02-19T12:18:57;99777.91;;;20.48;61.85
35704;BME280;21820;51.112;13.762;2023-02-19T12:21:37;99782.47;;;20.46;61.98
35704;BME280;21820;51.112;13.762;2023-02-19T12:24:25;99786.72;;;20.47;62.09
35704;BME280;21820;51.112;13.762;2023-02-19T12:32:23;99787.78;;;20.44;61.48
35704;BME280;21820;51.112;13.762;2023-02-19T12:35:14;99781.75;;;20.44;61.15
35704;BME280;21820;51.112;13.762;2023-02-19T12:37:53;99778.44;;;20.42;61.77
35704;BME280;21820;51.112;13.762;2023-02-19T12:45:44;99756.66;;;20.32;61.32
35704;BME280;21820;51.112;13.762;2023-02-19T12:53:59;99762.78;;;20.42;61.08
35704;BME280;21820;51.112;13.762;2023-02-19T12:56:33;99748.81;;;20.32;61.54
35704;BME280;21820;51.112;13.762;2023-02-19T12:59:05;99757.56;;;20.42;61.23
35704;BME280;21820;51.112;13.762;2023-02-19T13:01:44;99778.44;;;20.42;61.29
35704;BME280;21820;51.112;13.762;2023-02-19T13:04:42;99772.38;;;20.41;61.63
35704;BME280;21820;51.112;13.762;2023-02-19T13:07:13;99754.75;;;20.34;61.68
35704;BME280;21820;51.112;13.762;2023-02-19T13:09:51;99787.25;;;20.41;61.75
35704;BME280;21820;51.112;13.762;2023-02-19T13:12:27;99797.69;;;20.41;61.56
35704;BME280;21820;51.112;13.762;2023-02-19T13:14:57;99810.88;;;20.39;61.67
35704;BME280;21820;51.112;13.762;2023-02-19T13:17:30;99816.09;;;20.39;61.48
35704;BME280;21820;51.112;13.762;2023-02-19T13:20:02;99818.81;;;20.38;61.42
35704;BME280;21820;51.112;13.762;2023-02-19T13:22:40;99811.22;;;20.35;61.85
35704;BME280;21820;51.112;13.762;2023-02-19T13:25:40;99815.25;;;20.39;61.66
35704;BME280;21820;51.112;13.762;2023-02-19T13:28:30;99812.66;;;20.39;61.35
35704;BME280;21820;51.112;13.762;2023-02-19T13:36:28;99828.44;;;20.37;60.54
35704;BME280;21820;51.112;13.762;2023-02-19T13:38:55;99825.97;;;20.36;60.78
35704;BME280;21820;51.112;13.762;2023-02-19T13:41:53;99829.25;;;20.38;61.42
35704;BME280;21820;51.112;13.762;2023-02-19T13:44:30;99829.38;;;20.36;61.03
35704;BME280;21820;51.112;13.762;2023-02-19T13:46:56;99838.03;;;20.37;61.19
35704;BME280;21820;51.112;13.762;2023-02-19T13:52:00;99832.13;;;20.35;61.13
35704;BME280;21820;51.112;13.762;2023-02-19T13:54:30;99832.38;;;20.32;60.79
35704;BME280;21820;51.112;13.762;2023-02-19T13:59:48;99830.47;;;20.34;60.92
35704;BME280;21820;51.112;13.762;2023-02-19T14:02:23;99839.94;;;20.35;61.55
35704;BME280;21820;51.112;13.762;2023-02-19T14:04:52;99833.09;;;20.34;60.61
35704;BME280;21820;51.112;13.762;2023-02-19T14:09:44;99831.41;;;20.33;60.54
35704;BME280;21820;51.112;13.762;2023-02-19T14:17:36;99838.31;;;20.34;61.30
35704;BME280;21820;51.112;13.762;2023-02-19T14:27:52;99847.19;;;20.31;61.09
35704;BME280;21820;51.112;13.762;2023-02-19T14:30:20;99845.56;;;20.30;61.12
35704;BME280;21820;51.112;13.762;2023-02-19T14:32:47;99846.53;;;20.29;60.37
35704;BME280;21820;51.112;13.762;2023-02-19T14:35:19;99852.28;;;20.33;60.94
35704;BME280;21820;51.112;13.762;2023-02-19T14:37:46;99852.56;;;20.30;60.77
35704;BME280;21820;51.112;13.762;2023-02-19T14:40:22;99859.56;;;20.29;60.74
35704;BME280;21820;51.112;13.762;2023-02-19T14:42:52;99859.56;;;20.29;60.64
35704;BME280;21820;51.112;13.762;2023-02-19T14:45:19;99840.63;;;20.16;60.55
35704;BME280;21820;51.112;13.762;2023-02-19T14:47:47;99865.72;;;20.28;61.00
35704;BME280;21820;51.112;13.762;2023-02-19T14:50:14;99874.03;;;20.33;61.32